Time;durP1;ratioP1;P1;durP2;ratioP2;P2;SDS_P1;SDS_P2;PMS_P1;PMS_P2;Temp;Humidity;BMP_temperature;BMP_pressure;BME280_temperature;BME280_humidity;BME280_pressure;Samples;Min_cycle;Max_cycle;Signal;HPM_P1;HPM_P2
2023/04/17 00:01:22;;;;;;;23.57;18.50;;;8.50;99.70;;;;;;5031028;28;21034;-68
2023/04/17 00:03:51;;;;;;;20.97;17.00;;;8.50;99.50;;;;;;5030711;28;20946;-69
2023/04/17 00:06:18;;;;;;;20.50;16.63;;;8.50;99.60;;;;;;5031243;28;21297;-69
2023/04/17 00:08:45;;;;;;;20.87;16.73;;;8.50;99.60;;;;;;5031954;28;20453;-68
2023/04/17 00:11:11;;;;;;;20.33;16.70;;;8.50;99.50;;;;;;5041522;28;20472;-69
2023/04/17 00:13:39;;;;;;;18.53;15.90;;;8.50;99.60;;;;;;5050844;28;20981;-69
2023/04/17 00:16:09;;;;;;;18.93;16.20;;;8.40;99.50;;;;;;5051445;28;20455;-69
2023/04/17 00:18:36;;;;;;;20.83;17.10;;;8.50;99.50;;;;;;5051009;28;20447;-68
2023/04/17 00:21:03;;;;;;;20.87;18.30;;;8.50;99.50;;;;;;5051154;28;20468;-68
2023/04/17 00:23:29;;;;;;;20.63;17.73;;;8.50;99.90;;;;;;5050822;28;20444;-69
2023/04/17 00:25:56;;;;;;;20.50;17.20;;;8.50;99.70;;;;;;5047928;28;20482;-68
2023/04/17 00:28:23;;;;;;;17.93;16.00;;;8.50;99.60;;;;;;5047235;28;20459;-67
2023/04/17 00:30:52;;;;;;;19.93;16.80;;;8.50;99.60;;;;;;5050353;28;20459;-67
2023/04/17 00:33:19;;;;;;;24.50;18.00;;;8.50;99.50;;;;;;5050592;28;20538;-67
2023/04/17 00:35:45;;;;;;;25.70;18.50;;;8.50;99.40;;;;;;5050358;28;20527;-67
2023/04/17 00:38:12;;;;;;;20.10;16.77;;;8.50;99.40;;;;;;5050753;28;20440;-68
2023/04/17 00:40:39;;;;;;;22.70;17.47;;;8.50;99.80;;;;;;5050272;28;20479;-67
2023/04/17 00:43:07;;;;;;;20.57;16.47;;;8.50;99.50;;;;;;5050216;28;20448;-69
2023/04/17 00:45:35;;;;;;;20.90;16.50;;;8.50;99.60;;;;;;5050327;28;20491;-69
2023/04/17 00:48:05;;;;;;;22.03;17.17;;;8.50;99.50;;;;;;5050356;28;20891;-68
2023/04/17 00:50:33;;;;;;;19.80;17.07;;;8.50;99.50;;;;;;5050537;28;20471;-68
2023/04/17 00:53:00;;;;;;;18.03;15.73;;;8.50;99.40;;;;;;5049851;28;20458;-68
2023/04/17 00:55:28;;;;;;;19.00;16.17;;;8.50;99.30;;;;;;5049731;28;20452;-69
2023/04/17 00:57:56;;;;;;;20.50;17.00;;;8.50;99.40;;;;;;5049765;28;20834;-69
2023/04/17 01:00:23;;;;;;;20.77;16.00;;;8.50;99.30;;;;;;5045909;28;20449;-69
2023/04/17 01:02:50;;;;;;;18.57;15.83;;;8.50;99.80;;;;;;5030059;28;20820;-70
2023/04/17 01:05:19;;;;;;;19.13;17.13;;;8.40;99.50;;;;;;5029936;28;20532;-69
2023/04/17 01:07:46;;;;;;;19.97;17.80;;;8.40;99.60;;;;;;5030037;28;20599;-69
2023/04/17 01:10:13;;;;;;;18.97;15.73;;;8.40;99.60;;;;;;5029506;28;20450;-69
2023/04/17 01:12:40;;;;;;;20.97;17.03;;;8.40;99.60;;;;;;5029644;28;20449;-69
2023/04/17 01:15:07;;;;;;;19.40;16.70;;;8.40;99.50;;;;;;5029877;28;20449;-69
2023/04/17 01:17:34;;;;;;;23.07;17.50;;;8.40;99.40;;;;;;5037292;28;20533;-69
2023/04/17 01:20:04;;;;;;;22.40;17.40;;;8.40;99.40;;;;;;5054569;28;20437;-68
2023/04/17 01:22:33;;;;;;;23.70;18.17;;;8.30;99.50;;;;;;5029526;28;20473;-69
2023/04/17 01:25:01;;;;;;;22.70;17.43;;;8.30;99.70;;;;;;5029519;28;20525;-68
2023/04/17 01:27:28;;;;;;;21.20;18.90;;;8.20;99.70;;;;;;5030153;28;20838;-69
2023/04/17 01:29:55;;;;;;;20.47;17.33;;;8.20;99.80;;;;;;5029636;28;20445;-68
2023/04/17 01:32:22;;;;;;;23.23;18.67;;;8.20;99.80;;;;;;5029768;28;20831;-68
2023/04/17 01:34:48;;;;;;;25.80;19.90;;;8.10;99.80;;;;;;5041961;28;20457;-67
2023/04/17 01:37:15;;;;;;;21.70;18.17;;;8.10;99.90;;;;;;5049513;28;20448;-68
2023/04/17 01:39:42;;;;;;;23.70;18.17;;;8.10;99.90;;;;;;5049704;28;20456;-68
2023/04/17 01:42:10;;;;;;;24.00;19.07;;;8.10;99.90;;;;;;5049293;28;20473;-68
2023/04/17 01:44:37;;;;;;;24.63;20.00;;;8.10;99.90;;;;;;5049126;28;20479;-68
2023/04/17 01:47:04;;;;;;;25.00;20.67;;;8.10;99.90;;;;;;5049534;28;20500;-68
2023/04/17 01:49:31;;;;;;;24.17;20.63;;;8.10;99.90;;;;;;5049431;28;20484;-68
2023/04/17 01:51:58;;;;;;;21.00;17.43;;;8.10;99.90;;;;;;5047987;28;20464;-68
2023/04/17 01:54:25;;;;;;;24.30;19.57;;;8.10;99.90;;;;;;5048936;28;20440;-68
2023/04/17 01:56:52;;;;;;;26.50;20.17;;;8.10;99.90;;;;;;5039104;28;20449;-68
2023/04/17 01:59:20;;;;;;;23.90;19.97;;;8.10;99.90;;;;;;5029527;28;20824;-68
2023/04/17 02:01:46;;;;;;;22.93;18.13;;;8.10;99.90;;;;;;5029409;28;20461;-68
2023/04/17 02:04:13;;;;;;;25.63;18.70;;;8.10;99.90;;;;;;5029446;28;20468;-68
2023/04/17 02:06:40;;;;;;;26.50;18.30;;;8.10;99.90;;;;;;5029931;28;20445;-67
2023/04/17 02:09:07;;;;;;;23.40;18.37;;;8.10;99.90;;;;;;5030074;28;20449;-68
2023/04/17 02:11:34;;;;;;;24.83;19.07;;;8.10;99.90;;;;;;5049436;28;20470;-67
2023/04/17 02:14:01;;;;;;;21.97;17.50;;;8.00;99.90;;;;;;5069518;28;20453;-68
2023/04/17 02:16:30;;;;;;;26.13;19.10;;;8.00;99.90;;;;;;5069801;28;20435;-68
2023/04/17 02:18:57;;;;;;;23.40;17.23;;;8.00;99.90;;;;;;5069574;28;20485;-67
2023/04/17 02:21:25;;;;;;;25.50;18.63;;;8.00;99.90;;;;;;5070012;28;20466;-68
2023/04/17 02:23:52;;;;;;;23.50;18.00;;;8.00;99.90;;;;;;5072702;28;20503;-67
2023/04/17 02:26:19;;;;;;;23.13;17.00;;;8.00;99.90;;;;;;5073593;28;20474;-67
2023/04/17 02:28:46;;;;;;;23.13;18.47;;;8.00;99.90;;;;;;5054124;28;20447;-67
2023/04/17 02:31:13;;;;;;;26.20;17.40;;;8.00;99.90;;;;;;5053979;28;20470;-68
2023/04/17 02:33:41;;;;;;;23.50;17.90;;;8.10;99.90;;;;;;5053086;28;20523;-69
2023/04/17 02:36:09;;;;;;;21.00;16.80;;;8.10;99.90;;;;;;5052878;28;20435;-66
2023/04/17 02:38:36;;;;;;;19.57;16.83;;;8.10;99.90;;;;;;5053115;28;20467;-68
2023/04/17 02:41:04;;;;;;;21.07;16.90;;;8.00;99.90;;;;;;5052537;28;20480;-68
2023/04/17 02:43:30;;;;;;;18.93;16.47;;;8.00;99.90;;;;;;5050716;28;20693;-68
2023/04/17 02:45:57;;;;;;;19.23;15.80;;;8.00;99.90;;;;;;5052924;28;20528;-70
2023/04/17 02:48:24;;;;;;;19.87;16.73;;;8.10;99.90;;;;;;5052871;28;20456;-68
2023/04/17 02:50:52;;;;;;;23.30;19.40;;;8.10;99.90;;;;;;5052822;28;20478;-68
2023/04/17 02:53:19;;;;;;;21.00;17.10;;;8.20;99.90;;;;;;5052137;28;20527;-69
2023/04/17 02:55:46;;;;;;;19.00;16.80;;;8.20;99.80;;;;;;5052665;28;20439;-67
2023/04/17 02:58:12;;;;;;;20.40;17.30;;;8.20;99.60;;;;;;5052466;28;20446;-68
2023/04/17 03:00:40;;;;;;;20.73;16.93;;;8.30;99.50;;;;;;5046929;28;20823;-67
2023/04/17 03:03:08;;;;;;;21.20;17.40;;;8.30;99.50;;;;;;5032433;28;20440;-67
2023/04/17 03:05:35;;;;;;;20.70;17.13;;;8.30;99.40;;;;;;5032263;28;20468;-68
2023/04/17 03:08:03;;;;;;;21.27;17.53;;;8.30;99.20;;;;;;5032700;28;20429;-68
2023/04/17 03:10:30;;;;;;;21.20;17.13;;;8.30;99.30;;;;;;5032243;28;20817;-69
2023/04/17 03:12:57;;;;;;;22.60;17.87;;;8.30;99.10;;;;;;5031853;28;20451;-68
2023/04/17 03:15:24;;;;;;;21.90;18.20;;;8.30;99.20;;;;;;5032539;28;20445;-68
2023/04/17 03:17:50;;;;;;;21.50;17.43;;;8.30;99.20;;;;;;5040317;28;20448;-69
2023/04/17 03:20:17;;;;;;;21.37;18.03;;;8.30;99.30;;;;;;5051603;28;20437;-67
2023/04/17 03:22:44;;;;;;;18.43;16.13;;;8.30;99.20;;;;;;5051454;28;20444;-68
2023/04/17 03:25:12;;;;;;;24.30;17.93;;;8.40;99.10;;;;;;5051781;28;20480;-67
2023/04/17 03:27:39;;;;;;;21.60;17.80;;;8.30;99.00;;;;;;5047140;28;20444;-68
2023/04/17 03:30:08;;;;;;;19.73;17.13;;;8.40;99.00;;;;;;5049601;28;20459;-68
2023/04/17 03:32:34;;;;;;;24.63;18.77;;;8.40;98.90;;;;;;5049700;28;20463;-68
2023/04/17 03:35:01;;;;;;;20.73;17.67;;;8.40;99.00;;;;;;5039952;28;20449;-67
2023/04/17 03:37:28;;;;;;;21.67;18.23;;;8.30;99.10;;;;;;5037723;28;20472;-68
2023/04/17 03:39:55;;;;;;;24.27;20.37;;;8.30;99.20;;;;;;5051465;28;20450;-67
2023/04/17 03:42:24;;;;;;;23.77;18.30;;;8.30;99.30;;;;;;5050977;28;20508;-68
2023/04/17 03:44:51;;;;;;;23.47;19.63;;;8.30;99.40;;;;;;5051201;28;20544;-69
2023/04/17 03:47:17;;;;;;;22.00;17.73;;;8.20;99.60;;;;;;5051712;28;20452;-67
2023/04/17 03:49:44;;;;;;;21.90;19.00;;;8.20;99.30;;;;;;5051296;28;20436;-67
2023/04/17 03:52:11;;;;;;;26.60;18.97;;;8.20;99.20;;;;;;5038180;28;20486;-69
2023/04/17 03:54:38;;;;;;;22.53;19.47;;;8.20;99.30;;;;;;5030704;28;20432;-68
2023/04/17 03:57:05;;;;;;;23.23;19.30;;;8.20;99.10;;;;;;5043555;28;20504;-68
2023/04/17 03:59:33;;;;;;;23.23;19.17;;;8.20;99.30;;;;;;5051712;28;20436;-67
2023/04/17 04:02:00;;;;;;;23.43;19.47;;;8.20;99.30;;;;;;5050795;28;20463;-68
2023/04/17 04:04:27;;;;;;;25.50;19.23;;;8.20;99.40;;;;;;5048997;28;20444;-68
2023/04/17 04:06:56;;;;;;;26.33;19.10;;;8.10;99.30;;;;;;5050919;28;20842;-68
2023/04/17 04:09:23;;;;;;;25.20;19.17;;;8.10;99.30;;;;;;5042456;28;20465;-67
2023/04/17 04:11:50;;;;;;;24.27;19.90;;;8.10;99.20;;;;;;5049024;28;20470;-68
2023/04/17 04:14:16;;;;;;;23.17;19.30;;;8.20;99.20;;;;;;5050804;28;20444;-68
2023/04/17 04:16:45;;;;;;;26.93;18.77;;;8.20;99.30;;;;;;5051539;28;20448;-67
2023/04/17 04:19:11;;;;;;;24.47;19.97;;;8.10;99.30;;;;;;5050942;28;20949;-67
2023/04/17 04:21:38;;;;;;;27.03;21.40;;;8.10;99.40;;;;;;5050087;28;20479;-67
2023/04/17 04:24:07;;;;;;;28.17;21.47;;;8.10;99.40;;;;;;5051138;28;20454;-68
2023/04/17 04:26:34;;;;;;;28.60;19.90;;;8.10;99.50;;;;;;5050743;28;20490;-68
2023/04/17 04:29:00;;;;;;;27.00;19.90;;;8.00;99.50;;;;;;5051080;28;20458;-70
2023/04/17 04:31:28;;;;;;;24.87;20.10;;;8.10;99.50;;;;;;5050934;28;20477;-67
2023/04/17 04:33:57;;;;;;;27.53;21.23;;;8.10;99.50;;;;;;5050490;28;20539;-68
2023/04/17 04:36:28;;;;;;;23.70;20.47;;;8.10;99.50;;;;;;5050672;28;20451;-70
2023/04/17 04:38:58;;;;;;;27.43;21.03;;;8.00;99.50;;;;;;5048942;28;20544;-68
2023/04/17 04:41:25;;;;;;;26.53;20.70;;;8.00;99.40;;;;;;5050991;28;20476;-68
2023/04/17 04:43:52;;;;;;;21.97;17.83;;;8.10;99.40;;;;;;5050456;28;20489;-68
2023/04/17 04:46:19;;;;;;;24.80;18.63;;;8.10;99.40;;;;;;5050261;28;20839;-71
2023/04/17 04:48:45;;;;;;;23.20;19.33;;;8.10;99.40;;;;;;5047669;28;20459;-73
2023/04/17 04:51:14;;;;;;;29.57;20.27;;;8.10;99.30;;;;;;5053586;28;20464;-71
2023/04/17 04:53:40;;;;;;;22.73;18.80;;;8.10;99.30;;;;;;5053772;28;20444;-70
2023/04/17 04:56:08;;;;;;;22.17;18.60;;;8.20;99.30;;;;;;5052989;28;20448;-70
2023/04/17 04:58:35;;;;;;;27.57;20.83;;;8.20;99.10;;;;;;5054525;28;20452;-69
2023/04/17 05:01:02;;;;;;;26.53;20.23;;;8.20;99.10;;;;;;5054793;28;20468;-70
2023/04/17 05:03:30;;;;;;;20.70;18.33;;;8.20;99.20;;;;;;5050670;28;20948;-70
2023/04/17 05:05:56;;;;;;;24.17;18.50;;;8.20;99.20;;;;;;5053432;28;20496;-70
2023/04/17 05:08:25;;;;;;;25.70;20.30;;;8.20;98.90;;;;;;5053321;28;20817;-70
2023/04/17 05:10:51;;;;;;;27.90;22.63;;;8.20;99.10;;;;;;5053399;28;20471;-70
2023/04/17 05:13:18;;;;;;;21.13;18.03;;;8.20;99.10;;;;;;5051020;28;20454;-69
2023/04/17 05:15:45;;;;;;;25.40;19.70;;;8.30;99.10;;;;;;5049474;28;20462;-69
2023/04/17 05:18:12;;;;;;;21.77;18.20;;;8.20;99.00;;;;;;5051216;28;20469;-68
2023/04/17 05:20:38;;;;;;;24.77;20.57;;;8.20;99.20;;;;;;5051022;28;20911;-69
2023/04/17 05:23:05;;;;;;;22.10;18.17;;;8.20;99.10;;;;;;5052161;28;20448;-69
2023/04/17 05:25:34;;;;;;;24.17;18.87;;;8.20;99.00;;;;;;5052295;28;20479;-70
2023/04/17 05:28:00;;;;;;;24.57;19.03;;;8.20;99.10;;;;;;5051937;28;20455;-71
2023/04/17 05:30:27;;;;;;;23.20;19.23;;;8.30;99.10;;;;;;5052938;28;20483;-71
2023/04/17 05:32:54;;;;;;;22.40;18.77;;;8.30;99.10;;;;;;5051442;28;20455;-70
2023/04/17 05:35:21;;;;;;;25.37;20.70;;;8.20;99.20;;;;;;5036463;28;20452;-70
2023/04/17 05:37:48;;;;;;;24.00;19.80;;;8.20;99.20;;;;;;5030713;28;20555;-71
2023/04/17 05:40:15;;;;;;;25.47;19.27;;;8.20;99.30;;;;;;5031203;28;20979;-71
2023/04/17 05:42:43;;;;;;;28.30;20.07;;;8.30;99.60;;;;;;5030985;28;20449;-71
2023/04/17 05:45:13;;;;;;;27.00;20.43;;;8.30;99.40;;;;;;5032059;28;20982;-71
2023/04/17 05:47:40;;;;;;;26.67;21.00;;;8.30;99.50;;;;;;5034169;28;20503;-71
2023/04/17 05:50:08;;;;;;;28.30;22.00;;;8.30;99.60;;;;;;5046172;28;20458;-72
2023/04/17 05:52:35;;;;;;;29.90;21.50;;;8.30;99.50;;;;;;5052495;28;20468;-71
2023/04/17 05:55:02;;;;;;;25.70;20.33;;;8.30;99.60;;;;;;5032457;28;20441;-70
2023/04/17 05:57:29;;;;;;;25.33;19.77;;;8.30;99.70;;;;;;5050796;28;20506;-69
2023/04/17 05:59:57;;;;;;;28.30;20.93;;;8.30;99.80;;;;;;5051801;28;20458;-70
2023/04/17 06:02:24;;;;;;;24.50;19.83;;;8.30;99.90;;;;;;5055678;28;20472;-73
2023/04/17 06:04:51;;;;;;;27.30;20.30;;;8.30;99.70;;;;;;5054807;28;20448;-70
2023/04/17 06:07:18;;;;;;;24.77;19.93;;;8.20;99.80;;;;;;5060718;28;20467;-71
2023/04/17 06:09:45;;;;;;;28.70;20.93;;;8.20;99.90;;;;;;5059458;28;20479;-71
2023/04/17 06:12:14;;;;;;;25.67;21.97;;;8.20;99.90;;;;;;5054607;28;20573;-71
2023/04/17 06:14:42;;;;;;;31.20;23.50;;;8.20;99.90;;;;;;5053319;28;20811;-71
2023/04/17 06:17:11;;;;;;;27.13;22.20;;;8.30;99.90;;;;;;5051832;28;20468;-71
2023/04/17 06:19:38;;;;;;;24.20;19.70;;;8.30;99.90;;;;;;5055060;28;20498;-72
2023/04/17 06:22:04;;;;;;;23.63;18.73;;;8.20;99.80;;;;;;5056137;28;20873;-71
2023/04/17 06:24:31;;;;;;;25.50;19.13;;;8.30;99.80;;;;;;5055289;28;20687;-71
2023/04/17 06:26:58;;;;;;;23.20;18.80;;;8.30;99.90;;;;;;5054606;28;20508;-70
2023/04/17 06:29:25;;;;;;;24.10;19.60;;;8.30;99.90;;;;;;5036250;28;20471;-71
2023/04/17 06:31:51;;;;;;;26.07;20.17;;;8.40;99.90;;;;;;5035718;28;20678;-71
2023/04/17 06:34:20;;;;;;;25.97;21.23;;;8.40;99.90;;;;;;5035640;28;20457;-72
2023/04/17 06:36:47;;;;;;;26.07;19.90;;;8.50;99.90;;;;;;5043945;28;20490;-71
2023/04/17 06:39:14;;;;;;;23.00;19.23;;;8.50;99.80;;;;;;5049370;28;20467;-72
2023/04/17 06:41:41;;;;;;;25.10;21.13;;;8.50;99.70;;;;;;5054362;28;20553;-71
2023/04/17 06:44:08;;;;;;;25.50;17.70;;;8.50;99.70;;;;;;5049633;28;20448;-71
2023/04/17 06:46:35;;;;;;;21.77;18.13;;;8.50;99.60;;;;;;5045825;28;20488;-71
2023/04/17 06:49:02;;;;;;;24.90;19.70;;;8.50;99.70;;;;;;5053590;28;20452;-73
2023/04/17 06:51:30;;;;;;;25.30;20.10;;;8.50;99.80;;;;;;5053205;28;20478;-73
2023/04/17 06:53:58;;;;;;;28.13;21.17;;;8.50;99.80;;;;;;5053706;28;20451;-71
2023/04/17 06:56:25;;;;;;;27.33;20.90;;;8.50;99.80;;;;;;5054358;28;21019;-71
2023/04/17 06:58:53;;;;;;;22.90;18.30;;;8.50;99.90;;;;;;5053875;28;20444;-71
2023/04/17 07:01:24;;;;;;;27.10;21.10;;;8.40;99.90;;;;;;5038865;28;20469;-71
2023/04/17 07:03:51;;;;;;;24.23;19.63;;;8.50;99.90;;;;;;5032723;28;20457;-71
2023/04/17 07:06:18;;;;;;;28.80;21.67;;;8.40;99.90;;;;;;5033062;28;20491;-74
2023/04/17 07:08:46;;;;;;;25.80;20.20;;;8.40;99.90;;;;;;5033021;28;20526;-71
2023/04/17 07:11:13;;;;;;;23.80;20.63;;;8.50;99.90;;;;;;5033573;28;20508;-71
2023/04/17 07:13:39;;;;;;;27.00;20.40;;;8.50;99.80;;;;;;5033037;28;20448;-71
2023/04/17 07:16:07;;;;;;;26.60;20.53;;;8.50;99.90;;;;;;5034174;28;20461;-70
2023/04/17 07:18:34;;;;;;;25.17;19.83;;;8.60;99.90;;;;;;5053856;28;20558;-69
2023/04/17 07:21:01;;;;;;;23.90;18.40;;;8.60;99.90;;;;;;5054870;28;20478;-70
2023/04/17 07:23:28;;;;;;;23.97;18.60;;;8.70;99.90;;;;;;5056583;28;20452;-71
2023/04/17 07:25:56;;;;;;;23.37;18.80;;;8.70;99.90;;;;;;5056101;28;20452;-72
2023/04/17 07:28:23;;;;;;;21.60;16.57;;;8.80;99.90;;;;;;5057209;28;20444;-71
2023/04/17 07:30:51;;;;;;;20.53;16.73;;;8.90;99.50;;;;;;5055247;28;20559;-71
2023/04/17 07:33:18;;;;;;;20.00;16.40;;;8.90;99.30;;;;;;5053936;28;20528;-70
2023/04/17 07:35:45;;;;;;;21.60;17.50;;;9.00;99.50;;;;;;5054990;28;20460;-72
2023/04/17 07:38:12;;;;;;;23.23;18.77;;;9.00;99.40;;;;;;5046655;28;20451;-72
2023/04/17 07:40:40;;;;;;;18.97;15.43;;;9.10;99.30;;;;;;5052661;28;20487;-70
2023/04/17 07:43:08;;;;;;;20.90;18.43;;;9.20;99.00;;;;;;5051586;28;20474;-71
2023/04/17 07:45:35;;;;;;;21.70;17.43;;;9.30;99.10;;;;;;5053848;28;20429;-70
2023/04/17 07:48:02;;;;;;;18.63;15.40;;;9.40;99.00;;;;;;5053517;28;20468;-71
2023/04/17 07:50:29;;;;;;;25.30;18.93;;;9.40;98.90;;;;;;5045327;28;20448;-72
2023/04/17 07:52:56;;;;;;;24.80;17.07;;;9.50;98.90;;;;;;5033354;28;20951;-71
2023/04/17 07:55:23;;;;;;;24.63;18.90;;;9.50;98.70;;;;;;5034801;28;20461;-71
2023/04/17 07:57:51;;;;;;;20.57;18.37;;;9.50;98.60;;;;;;5033745;28;20445;-72
2023/04/17 08:00:20;;;;;;;21.80;15.50;;;9.60;98.70;;;;;;5033620;28;20463;-72
2023/04/17 08:02:47;;;;;;;17.70;15.70;;;9.70;98.10;;;;;;5034159;28;20495;-71
2023/04/17 08:05:14;;;;;;;16.63;13.80;;;9.60;98.10;;;;;;5034807;28;20527;-72
2023/04/17 08:07:42;;;;;;;16.27;13.97;;;9.70;98.30;;;;;;5035679;28;20490;-71
2023/04/17 08:10:09;;;;;;;16.07;13.23;;;9.80;97.90;;;;;;5037976;28;20433;-72
2023/04/17 08:12:36;;;;;;;15.07;13.47;;;9.80;97.60;;;;;;5070757;28;20478;-70
2023/04/17 08:15:03;;;;;;;16.83;12.67;;;9.80;97.60;;;;;;5055475;28;20460;-72
2023/04/17 08:17:32;;;;;;;17.20;14.63;;;9.70;97.10;;;;;;5055146;28;20467;-72
2023/04/17 08:20:00;;;;;;;18.83;12.70;;;9.70;97.40;;;;;;5054723;28;20455;-71
2023/04/17 08:22:28;;;;;;;14.10;12.63;;;9.60;97.30;;;;;;5055531;28;20468;-73
2023/04/17 08:24:56;;;;;;;15.63;13.07;;;9.70;97.60;;;;;;5053266;28;20448;-71
2023/04/17 08:27:24;;;;;;;12.47;11.17;;;9.70;97.30;;;;;;5046796;28;20516;-73
2023/04/17 08:29:52;;;;;;;12.30;10.90;;;9.80;96.90;;;;;;5033497;28;20464;-73
2023/04/17 08:32:19;;;;;;;13.37;10.50;;;9.80;97.00;;;;;;5033369;28;20526;-71
2023/04/17 08:34:47;;;;;;;12.30;11.00;;;9.90;96.70;;;;;;5033212;28;20444;-70
2023/04/17 08:37:14;;;;;;;12.73;11.40;;;9.90;96.50;;;;;;5033272;28;20959;-70
2023/04/17 08:39:41;;;;;;;11.83;9.87;;;10.00;96.10;;;;;;5032981;28;20468;-70
2023/04/17 08:42:09;;;;;;;14.30;11.27;;;10.00;95.70;;;;;;5032987;28;20464;-71
2023/04/17 08:44:36;;;;;;;11.07;9.93;;;9.90;96.40;;;;;;5041098;28;20481;-71
2023/04/17 08:47:04;;;;;;;14.23;12.03;;;9.90;96.70;;;;;;5039018;28;20477;-73
2023/04/17 08:49:33;;;;;;;12.30;10.00;;;9.80;97.00;;;;;;5033218;28;20498;-72
2023/04/17 08:52:04;;;;;;;11.00;9.90;;;9.80;96.70;;;;;;5032815;28;20468;-72
2023/04/17 08:54:32;;;;;;;11.13;9.37;;;9.80;97.50;;;;;;5032782;28;20440;-71
2023/04/17 08:57:02;;;;;;;12.57;9.57;;;9.90;96.90;;;;;;5033349;28;20862;-72
2023/04/17 08:59:29;;;;;;;10.53;9.43;;;9.90;97.00;;;;;;5033732;28;20449;-72
2023/04/17 09:02:00;;;;;;;10.53;9.40;;;9.90;97.30;;;;;;5033511;28;20487;-72
2023/04/17 09:04:37;;;;;;;11.17;9.60;;;9.90;97.10;;;;;;5033394;28;20997;-71
2023/04/17 09:07:06;;;;;;;9.80;8.70;;;10.00;97.50;;;;;;5035704;28;20568;-71
2023/04/17 09:09:50;;;;;;;9.17;8.27;;;10.00;96.50;;;;;;5031758;28;20459;-72
2023/04/17 09:12:17;;;;;;;10.03;8.40;;;10.10;96.00;;;;;;5032312;28;21010;-71
2023/04/17 09:14:44;;;;;;;8.87;7.03;;;10.20;96.40;;;;;;5032088;28;20908;-72
2023/04/17 09:17:11;;;;;;;8.80;7.27;;;10.60;96.30;;;;;;5034867;28;20470;-72
2023/04/17 09:19:38;;;;;;;8.13;7.23;;;10.80;94.50;;;;;;5052843;28;20541;-72
2023/04/17 09:22:19;;;;;;;7.33;6.63;;;11.00;94.40;;;;;;5052157;28;20467;-72
2023/04/17 09:24:46;;;;;;;7.50;6.80;;;11.30;93.70;;;;;;5052181;28;20478;-71
2023/04/17 09:27:21;;;;;;;8.03;7.23;;;11.40;93.30;;;;;;5052105;28;21064;-73
2023/04/17 09:29:59;;;;;;;7.60;6.90;;;11.60;93.00;;;;;;5052290;28;20450;-72
2023/04/17 09:32:27;;;;;;;9.43;6.90;;;11.60;92.30;;;;;;5050929;28;20482;-72
2023/04/17 09:34:55;;;;;;;8.17;7.30;;;11.80;91.90;;;;;;5037874;28;20452;-73
2023/04/17 09:37:24;;;;;;;7.10;6.40;;;12.00;92.50;;;;;;5032988;28;20488;-71
2023/04/17 09:39:59;;;;;;;7.60;6.90;;;12.30;91.30;;;;;;5033969;28;20461;-71
2023/04/17 09:42:27;;;;;;;6.83;6.23;;;12.00;90.70;;;;;;5034418;28;20460;-71
2023/04/17 09:44:54;;;;;;;7.40;6.70;;;11.80;90.60;;;;;;5074191;28;20546;-70
2023/04/17 09:47:22;;;;;;;7.43;6.70;;;11.60;91.10;;;;;;5071778;28;20558;-70
2023/04/17 09:49:51;;;;;;;6.93;6.27;;;11.20;91.80;;;;;;5072382;28;20484;-72
2023/04/17 09:52:23;;;;;;;6.93;6.20;;;11.10;92.70;;;;;;5052147;28;21267;-71
2023/04/17 09:54:52;;;;;;;8.77;7.97;;;11.10;93.70;;;;;;5051751;28;20438;-70
2023/04/17 09:57:19;;;;;;;7.13;6.50;;;11.20;92.30;;;;;;5046432;28;20511;-70
2023/04/17 09:59:47;;;;;;;7.63;6.93;;;11.40;93.60;;;;;;5031665;28;20452;-71
2023/04/17 10:02:16;;;;;;;7.27;6.50;;;11.80;93.30;;;;;;5034935;28;20478;-71
2023/04/17 10:04:44;;;;;;;7.57;6.20;;;12.20;91.00;;;;;;5050491;28;20446;-70
2023/04/17 10:07:12;;;;;;;6.63;6.00;;;12.40;90.50;;;;;;5052265;28;21132;-71
2023/04/17 10:09:41;;;;;;;6.83;5.70;;;12.60;91.00;;;;;;5051646;28;20484;-70
2023/04/17 10:12:12;;;;;;;7.50;6.27;;;13.10;88.80;;;;;;5032902;28;20469;-70
2023/04/17 10:14:43;;;;;;;5.67;4.90;;;13.50;85.80;;;;;;5040366;28;20457;-71
2023/04/17 10:17:27;;;;;;;9.10;6.43;;;14.10;87.00;;;;;;5051022;28;21169;-70
2023/04/17 10:19:54;;;;;;;6.53;5.93;;;14.40;82.00;;;;;;5052081;28;20450;-73
2023/04/17 10:22:39;;;;;;;5.73;5.27;;;14.70;81.80;;;;;;5046689;28;20499;-70
2023/04/17 10:25:24;;;;;;;6.30;5.53;;;15.00;79.90;;;;;;5052780;28;20949;-72
2023/04/17 10:27:53;;;;;;;5.80;5.30;;;15.00;75.80;;;;;;5050411;28;21127;-70
2023/04/17 10:30:21;;;;;;;5.70;5.20;;;15.30;75.40;;;;;;5047939;28;20447;-72
2023/04/17 10:33:20;;;;;;;6.67;5.50;;;15.60;78.20;;;;;;5052164;28;20528;-72
2023/04/17 10:35:48;;;;;;;5.93;5.33;;;15.90;72.10;;;;;;5048193;28;20532;-71
2023/04/17 10:38:17;;;;;;;5.70;5.20;;;16.00;71.70;;;;;;5053355;28;20435;-73
2023/04/17 10:40:45;;;;;;;6.20;5.60;;;16.10;72.20;;;;;;5051969;28;20474;-71
2023/04/17 10:43:13;;;;;;;5.77;5.27;;;16.40;72.00;;;;;;5052688;28;20447;-71
2023/04/17 10:45:55;;;;;;;5.30;4.80;;;16.50;71.60;;;;;;5056254;28;20482;-71
2023/04/17 10:48:28;;;;;;;5.93;5.43;;;16.60;68.40;;;;;;5055923;28;20529;-71
2023/04/17 10:50:55;;;;;;;6.73;6.03;;;16.70;68.60;;;;;;5056455;28;21212;-71
2023/04/17 10:53:42;;;;;;;5.80;5.30;;;16.20;69.10;;;;;;5056371;28;20442;-71
2023/04/17 10:56:16;;;;;;;5.37;4.87;;;16.00;73.20;;;;;;5052387;28;20452;-71
2023/04/17 10:58:57;;;;;;;5.93;5.43;;;16.30;71.80;;;;;;5057187;28;20445;-70
2023/04/17 11:01:26;;;;;;;5.83;5.33;;;16.60;71.00;;;;;;5066044;28;20464;-73
2023/04/17 11:03:52;;;;;;;6.00;5.50;;;16.50;65.20;;;;;;5064114;28;20452;-72
2023/04/17 11:06:20;;;;;;;5.67;5.10;;;16.70;69.20;;;;;;5061403;28;20448;-72
2023/04/17 11:08:48;;;;;;;6.53;5.20;;;16.60;70.00;;;;;;5060913;28;20537;-72
2023/04/17 11:11:17;;;;;;;6.30;5.57;;;16.90;67.50;;;;;;5042116;28;20575;-71
2023/04/17 11:13:47;;;;;;;5.97;5.47;;;17.10;66.40;;;;;;5040035;28;20452;-71
2023/04/17 11:16:15;;;;;;;6.07;5.50;;;17.40;66.40;;;;;;5039918;28;20514;-72
2023/04/17 11:18:42;;;;;;;5.00;4.60;;;17.70;66.60;;;;;;5039610;28;20540;-73
2023/04/17 11:21:11;;;;;;;5.50;5.00;;;17.70;58.70;;;;;;5038560;28;20533;-73
2023/04/17 11:23:38;;;;;;;6.00;5.43;;;16.40;61.30;;;;;;5037656;28;20454;-71
2023/04/17 11:26:06;;;;;;;5.50;5.00;;;15.60;65.60;;;;;;5038521;28;20465;-71
2023/04/17 11:28:36;;;;;;;5.10;4.70;;;14.90;69.70;;;;;;5039360;28;20507;-71
2023/04/17 11:31:04;;;;;;;6.80;4.53;;;14.30;66.70;;;;;;5040255;28;20476;-72
2023/04/17 11:33:36;;;;;;;6.37;4.70;;;13.90;70.50;;;;;;5040491;28;20462;-72
2023/04/17 11:36:04;;;;;;;5.60;4.93;;;13.80;73.80;;;;;;5041231;28;20504;-72
2023/04/17 11:38:31;;;;;;;5.13;4.63;;;14.00;70.90;;;;;;5041210;28;20447;-72
2023/04/17 11:41:00;;;;;;;5.67;5.17;;;13.70;73.80;;;;;;5041446;28;20550;-71
2023/04/17 11:43:28;;;;;;;7.83;5.60;;;13.80;74.10;;;;;;5042320;28;20446;-70
2023/04/17 11:45:57;;;;;;;6.67;5.73;;;13.40;75.50;;;;;;5040491;28;20454;-71
2023/04/17 11:48:26;;;;;;;5.80;5.00;;;13.10;79.50;;;;;;5039766;28;20847;-73
2023/04/17 11:50:55;;;;;;;6.60;6.00;;;13.30;80.30;;;;;;5040686;28;20502;-73
2023/04/17 11:53:22;;;;;;;6.23;5.63;;;13.30;78.70;;;;;;5044654;28;20481;-72
2023/04/17 11:56:09;;;;;;;5.67;5.13;;;13.30;79.10;;;;;;5047191;28;20543;-72
2023/04/17 11:58:45;;;;;;;5.10;4.53;;;13.10;80.20;;;;;;5047976;28;20968;-72
2023/04/17 12:01:14;;;;;;;5.67;5.10;;;13.00;80.30;;;;;;5045929;28;20524;-71
2023/04/17 12:03:40;;;;;;;5.17;4.67;;;12.90;79.10;;;;;;5038111;28;20509;-72
2023/04/17 12:06:08;;;;;;;4.93;4.53;;;12.70;79.20;;;;;;5048921;28;20504;-71
2023/04/17 12:08:46;;;;;;;7.23;4.80;;;12.80;80.30;;;;;;5058146;28;20579;-73
2023/04/17 12:11:23;;;;;;;6.27;5.33;;;13.00;79.80;;;;;;5054560;28;20943;-71
2023/04/17 12:13:50;;;;;;;5.10;4.30;;;13.30;81.00;;;;;;5055881;28;20446;-73
2023/04/17 12:16:19;;;;;;;5.13;4.63;;;13.80;80.10;;;;;;5055535;28;20448;-72
2023/04/17 12:18:46;;;;;;;5.20;4.60;;;14.50;78.20;;;;;;5053600;28;20456;-72
2023/04/17 12:21:13;;;;;;;5.80;5.33;;;15.00;71.60;;;;;;5055394;28;20474;-71
2023/04/17 12:23:40;;;;;;;5.03;4.53;;;15.00;71.60;;;;;;5055225;28;20536;-73
2023/04/17 12:26:07;;;;;;;5.80;5.07;;;14.90;70.50;;;;;;5060231;28;20472;-72
2023/04/17 12:28:34;;;;;;;6.00;5.50;;;14.70;73.20;;;;;;5060826;28;20481;-72
2023/04/17 12:31:01;;;;;;;5.70;5.20;;;14.20;73.60;;;;;;5061102;28;20470;-70
2023/04/17 12:33:30;;;;;;;6.53;5.60;;;13.60;79.00;;;;;;5058466;28;20465;-72
2023/04/17 12:35:57;;;;;;;6.37;5.73;;;13.40;80.30;;;;;;5056870;28;20476;-72
2023/04/17 12:38:23;;;;;;;5.80;5.30;;;13.40;82.70;;;;;;5056073;28;20448;-72
2023/04/17 12:40:50;;;;;;;7.43;6.80;;;13.40;77.80;;;;;;5054994;28;20497;-70
2023/04/17 12:43:17;;;;;;;6.20;4.83;;;13.00;76.30;;;;;;5054739;28;20444;-71
2023/04/17 12:45:45;;;;;;;4.93;4.53;;;12.80;76.20;;;;;;5052198;28;20484;-71